LFBD 210400Z AUTO 01005KT CAVOK 02/01 Q1033 BECMG BKN005

ElémentsDécodage
LFBD Station météo située sur l'aérodrome de BORDEAUX Mérignac
210400Z émis le 21 du mois à 04h00 UTC
AUTO Bulletin édité par un automate
01005KT vent du 010°, 05 noeuds
CAVOK Ceiling And Visibility OK
- Visibilité de 10 Km ou plus
- Pas de nuage au-dessous de 1500m ou au-dessous de l'altitude minimale du secteur la plus élevée (si>1500m) et absence de CB
- pas de temps présent significatif
02/01 température 02°C, point de rosée 01°C
 soit une humidité relative de 93%
Q1033 la pression au niveau de la mer (QNH) est de 1033 hPa
BECMG fluctuation du temps prévue
BKN005 nuages morcelés (5/8 à 7/8) à 500 pieds